sensor_id;sensor_type;location;lat;lon;timestamp;pressure;altitude;pressure_sealevel;temperature;humidity
74270;BME280;62754;48.252;11.654;2022-12-18T00:00:31;97242.81;;;-5.57;83.66
74270;BME280;62754;48.252;11.654;2022-12-18T00:02:57;97251.19;;;-5.50;83.66
74270;BME280;62754;48.252;11.654;2022-12-18T00:05:22;97248.66;;;-5.55;83.45
74270;BME280;62754;48.252;11.654;2022-12-18T00:07:48;97244.47;;;-5.66;84.16
74270;BME280;62754;48.252;11.654;2022-12-18T00:10:14;97246.16;;;-5.44;83.58
74270;BME280;62754;48.252;11.654;2022-12-18T00:12:40;97242.84;;;-5.37;82.89
74270;BME280;62754;48.252;11.654;2022-12-18T00:15:06;97242.84;;;-5.49;83.50
74270;BME280;62754;48.252;11.654;2022-12-18T00:17:32;97249.50;;;-5.51;83.25
74270;BME280;62754;48.252;11.654;2022-12-18T00:19:57;97247.03;;;-5.53;83.54
74270;BME280;62754;48.252;11.654;2022-12-18T00:22:23;97243.66;;;-5.38;83.24
74270;BME280;62754;48.252;11.654;2022-12-18T00:24:49;97244.50;;;-5.54;83.46
74270;BME280;62754;48.252;11.654;2022-12-18T00:27:15;97245.34;;;-5.40;83.14
74270;BME280;62754;48.252;11.654;2022-12-18T00:29:40;97248.66;;;-5.65;83.76
74270;BME280;62754;48.252;11.654;2022-12-18T00:32:06;97247.00;;;-5.47;83.46
74270;BME280;62754;48.252;11.654;2022-12-18T00:34:32;97261.25;;;-5.56;83.59
74270;BME280;62754;48.252;11.654;2022-12-18T00:36:58;97256.22;;;-5.56;83.57
74270;BME280;62754;48.252;11.654;2022-12-18T00:39:23;97258.72;;;-5.52;83.48
74270;BME280;62754;48.252;11.654;2022-12-18T00:41:49;97257.06;;;-5.53;83.27
74270;BME280;62754;48.252;11.654;2022-12-18T00:44:16;97259.53;;;-5.62;83.97
74270;BME280;62754;48.252;11.654;2022-12-18T00:46:43;97273.78;;;-5.55;83.58
74270;BME280;62754;48.252;11.654;2022-12-18T00:49:09;97272.09;;;-5.75;84.08
74270;BME280;62754;48.252;11.654;2022-12-18T00:51:35;97277.16;;;-5.39;83.78
74270;BME280;62754;48.252;11.654;2022-12-18T00:54:01;97274.63;;;-5.50;83.53
74270;BME280;62754;48.252;11.654;2022-12-18T00:56:27;97287.19;;;-5.47;83.56
74270;BME280;62754;48.252;11.654;2022-12-18T00:58:52;97289.72;;;-5.30;82.98
74270;BME280;62754;48.252;11.654;2022-12-18T01:01:18;97285.53;;;-5.30;82.49
74270;BME280;62754;48.252;11.654;2022-12-18T01:03:44;97287.97;;;-5.63;83.81
74270;BME280;62754;48.252;11.654;2022-12-18T01:06:12;97282.97;;;-5.58;83.90
74270;BME280;62754;48.252;11.654;2022-12-18T01:08:38;97282.94;;;-5.67;84.22
74270;BME280;62754;48.252;11.654;2022-12-18T01:11:12;97281.31;;;-5.50;83.65
74270;BME280;62754;48.252;11.654;2022-12-18T01:13:39;97271.25;;;-5.59;83.97
74270;BME280;62754;48.252;11.654;2022-12-18T01:16:05;97272.16;;;-5.18;83.05
74270;BME280;62754;48.252;11.654;2022-12-18T01:18:31;97287.19;;;-5.38;82.80
74270;BME280;62754;48.252;11.654;2022-12-18T01:20:57;97298.06;;;-5.33;82.75
74270;BME280;62754;48.252;11.654;2022-12-18T01:23:23;97302.28;;;-5.25;82.81
74270;BME280;62754;48.252;11.654;2022-12-18T01:25:48;97299.75;;;-5.30;82.90
74270;BME280;62754;48.252;11.654;2022-12-18T01:28:14;97299.75;;;-5.39;82.99
74270;BME280;62754;48.252;11.654;2022-12-18T01:30:40;97303.06;;;-5.51;84.10
74270;BME280;62754;48.252;11.654;2022-12-18T01:33:06;97313.13;;;-5.49;84.41
74270;BME280;62754;48.252;11.654;2022-12-18T01:35:31;97323.19;;;-5.42;83.91
74270;BME280;62754;48.252;11.654;2022-12-18T01:37:57;97332.34;;;-5.51;84.12
74270;BME280;62754;48.252;11.654;2022-12-18T01:40:23;97317.31;;;-5.42;83.52
74270;BME280;62754;48.252;11.654;2022-12-18T01:42:53;97339.94;;;-5.30;83.52
74270;BME280;62754;48.252;11.654;2022-12-18T01:45:29;97343.28;;;-5.33;83.65
74270;BME280;62754;48.252;11.654;2022-12-18T01:48:03;97339.09;;;-5.31;83.18
74270;BME280;62754;48.252;11.654;2022-12-18T01:50:40;97338.25;;;-5.37;83.55
74270;BME280;62754;48.252;11.654;2022-12-18T01:53:11;97337.47;;;-5.18;82.95
74270;BME280;62754;48.252;11.654;2022-12-18T01:55:43;97339.97;;;-5.25;83.15
74270;BME280;62754;48.252;11.654;2022-12-18T01:58:10;97337.44;;;-5.12;83.12
74270;BME280;62754;48.252;11.654;2022-12-18T02:00:36;97340.78;;;-5.13;83.05
74270;BME280;62754;48.252;11.654;2022-12-18T02:03:02;97335.75;;;-5.39;83.95
74270;BME280;62754;48.252;11.654;2022-12-18T02:10:46;97322.38;;;-5.15;83.59
74270;BME280;62754;48.252;11.654;2022-12-18T02:13:34;97315.69;;;-5.07;83.19
74270;BME280;62754;48.252;11.654;2022-12-18T02:16:14;97313.16;;;-5.22;84.02
74270;BME280;62754;48.252;11.654;2022-12-18T02:18:48;97315.66;;;-5.37;83.73
74270;BME280;62754;48.252;11.654;2022-12-18T02:24:21;97324.03;;;-5.23;83.36
74270;BME280;62754;48.252;11.654;2022-12-18T02:27:14;97314.00;;;-5.11;82.92
74270;BME280;62754;48.252;11.654;2022-12-18T02:29:41;97307.28;;;-5.24;83.29
74270;BME280;62754;48.252;11.654;2022-12-18T02:32:13;97307.28;;;-5.06;83.19
74270;BME280;62754;48.252;11.654;2022-12-18T02:34:40;97314.00;;;-5.11;83.23
74270;BME280;62754;48.252;11.654;2022-12-18T02:37:13;97309.81;;;-5.22;83.32
74270;BME280;62754;48.252;11.654;2022-12-18T02:39:41;97308.13;;;-5.13;83.67
74270;BME280;62754;48.252;11.654;2022-12-18T02:42:08;97309.78;;;-5.36;83.68
74270;BME280;62754;48.252;11.654;2022-12-18T02:44:35;97319.00;;;-5.31;83.62
74270;BME280;62754;48.252;11.654;2022-12-18T02:47:09;97320.69;;;-5.37;84.66
74270;BME280;62754;48.252;11.654;2022-12-18T02:52:55;97313.16;;;-5.28;83.99
74270;BME280;62754;48.252;11.654;2022-12-18T03:00:47;97311.47;;;-5.38;84.30
74270;BME280;62754;48.252;11.654;2022-12-18T03:03:26;97314.00;;;-5.28;84.29
74270;BME280;62754;48.252;11.654;2022-12-18T03:06:01;97315.66;;;-5.25;84.11
74270;BME280;62754;48.252;11.654;2022-12-18T03:08:34;97306.44;;;-5.17;83.81
74270;BME280;62754;48.252;11.654;2022-12-18T03:11:04;97307.31;;;-5.19;83.92
74270;BME280;62754;48.252;11.654;2022-12-18T03:13:37;97308.97;;;-5.12;83.57
74270;BME280;62754;48.252;11.654;2022-12-18T03:16:06;97317.34;;;-5.06;83.23
74270;BME280;62754;48.252;11.654;2022-12-18T03:18:37;97305.63;;;-5.04;83.32
74270;BME280;62754;48.252;11.654;2022-12-18T03:21:06;97303.13;;;-5.14;83.34
74270;BME280;62754;48.252;11.654;2022-12-18T03:23:40;97300.59;;;-4.90;83.00
74270;BME280;62754;48.252;11.654;2022-12-18T03:26:10;97305.66;;;-5.10;83.58
74270;BME280;62754;48.252;11.654;2022-12-18T03:28:45;97306.47;;;-4.94;83.23
74270;BME280;62754;48.252;11.654;2022-12-18T03:31:13;97306.47;;;-4.84;82.44
74270;BME280;62754;48.252;11.654;2022-12-18T03:36:11;97309.00;;;-5.06;83.25
74270;BME280;62754;48.252;11.654;2022-12-18T03:38:37;97312.34;;;-5.10;83.45
74270;BME280;62754;48.252;11.654;2022-12-18T03:49:30;97322.38;;;-4.97;83.13
74270;BME280;62754;48.252;11.654;2022-12-18T03:52:05;97317.38;;;-5.00;83.25
74270;BME280;62754;48.252;11.654;2022-12-18T03:54:33;97311.50;;;-4.96;83.75
74270;BME280;62754;48.252;11.654;2022-12-18T03:57:11;97307.28;;;-4.94;83.46
74270;BME280;62754;48.252;11.654;2022-12-18T03:59:39;97309.00;;;-4.84;83.12
74270;BME280;62754;48.252;11.654;2022-12-18T04:02:06;97308.97;;;-4.94;82.88
74270;BME280;62754;48.252;11.654;2022-12-18T04:04:35;97313.16;;;-4.90;83.24
74270;BME280;62754;48.252;11.654;2022-12-18T04:07:04;97316.50;;;-4.90;83.36
74270;BME280;62754;48.252;11.654;2022-12-18T04:09:31;97329.94;;;-4.85;82.91
74270;BME280;62754;48.252;11.654;2022-12-18T04:11:58;97328.25;;;-4.81;82.68
74270;BME280;62754;48.252;11.654;2022-12-18T04:14:24;97324.91;;;-4.85;82.95
74270;BME280;62754;48.252;11.654;2022-12-18T04:16:49;97323.22;;;-5.13;84.04
74270;BME280;62754;48.252;11.654;2022-12-18T04:19:15;97318.22;;;-4.87;83.52
74270;BME280;62754;48.252;11.654;2022-12-18T04:21:41;97307.31;;;-5.03;84.05
74270;BME280;62754;48.252;11.654;2022-12-18T04:24:07;97308.16;;;-4.99;84.13
74270;BME280;62754;48.252;11.654;2022-12-18T04:26:33;97303.97;;;-4.99;83.47
74270;BME280;62754;48.252;11.654;2022-12-18T04:28:58;97319.03;;;-5.03;84.15
74270;BME280;62754;48.252;11.654;2022-12-18T04:31:24;97324.06;;;-4.88;84.17
74270;BME280;62754;48.252;11.654;2022-12-18T04:33:50;97325.72;;;-5.04;84.40
74270;BME280;62754;48.252;11.654;2022-12-18T04:36:15;97331.59;;;-5.00;84.23
74270;BME280;62754;48.252;11.654;2022-12-18T04:38:41;97334.13;;;-4.81;83.93
74270;BME280;62754;48.252;11.654;2022-12-18T04:41:07;97329.91;;;-4.78;83.57
74270;BME280;62754;48.252;11.654;2022-12-18T04:43:33;97336.63;;;-4.79;83.15
74270;BME280;62754;48.252;11.654;2022-12-18T04:46:03;97330.75;;;-4.64;83.01
74270;BME280;62754;48.252;11.654;2022-12-18T04:48:30;97339.94;;;-4.50;82.95
74270;BME280;62754;48.252;11.654;2022-12-18T04:50:55;97334.94;;;-4.72;82.79
74270;BME280;62754;48.252;11.654;2022-12-18T04:53:21;97336.59;;;-4.67;82.61
74270;BME280;62754;48.252;11.654;2022-12-18T04:55:47;97333.28;;;-4.72;82.85
74270;BME280;62754;48.252;11.654;2022-12-18T04:58:13;97324.03;;;-4.56;82.04
74270;BME280;62754;48.252;11.654;2022-12-18T05:00:38;97344.97;;;-4.63;82.61
74270;BME280;62754;48.252;11.654;2022-12-18T05:03:04;97351.72;;;-4.84;83.17
74270;BME280;62754;48.252;11.654;2022-12-18T05:05:30;97359.22;;;-4.82;83.81
74270;BME280;62754;48.252;11.654;2022-12-18T05:07:56;97360.91;;;-4.73;83.14
74270;BME280;62754;48.252;11.654;2022-12-18T05:10:21;97352.53;;;-4.60;82.96
74270;BME280;62754;48.252;11.654;2022-12-18T05:12:47;97356.72;;;-4.81;83.28
74270;BME280;62754;48.252;11.654;2022-12-18T05:15:13;97356.72;;;-4.61;82.84
74270;BME280;62754;48.252;11.654;2022-12-18T05:17:39;97352.56;;;-4.75;82.99
74270;BME280;62754;48.252;11.654;2022-12-18T05:20:04;97347.53;;;-4.72;83.41
74270;BME280;62754;48.252;11.654;2022-12-18T05:22:30;97343.31;;;-4.46;82.48
74270;BME280;62754;48.252;11.654;2022-12-18T05:24:56;97344.16;;;-4.53;82.74
74270;BME280;62754;48.252;11.654;2022-12-18T05:27:22;97346.66;;;-4.65;82.58
74270;BME280;62754;48.252;11.654;2022-12-18T05:29:47;97353.38;;;-4.64;82.63
74270;BME280;62754;48.252;11.654;2022-12-18T05:32:13;97367.63;;;-4.88;83.80
74270;BME280;62754;48.252;11.654;2022-12-18T05:34:39;97365.94;;;-4.69;83.31
74270;BME280;62754;48.252;11.654;2022-12-18T05:37:05;97365.09;;;-4.85;83.96
74270;BME280;62754;48.252;11.654;2022-12-18T05:39:30;97360.06;;;-4.71;83.69
74270;BME280;62754;48.252;11.654;2022-12-18T05:41:56;97368.47;;;-4.76;83.93
74270;BME280;62754;48.252;11.654;2022-12-18T05:44:22;97363.44;;;-4.64;82.92
74270;BME280;62754;48.252;11.654;2022-12-18T05:46:48;97362.59;;;-4.71;83.66
74270;BME280;62754;48.252;11.654;2022-12-18T05:49:13;97365.09;;;-4.41;82.20
74270;BME280;62754;48.252;11.654;2022-12-18T05:51:39;97369.28;;;-4.58;82.67
74270;BME280;62754;48.252;11.654;2022-12-18T05:54:05;97376.84;;;-4.62;82.91
74270;BME280;62754;48.252;11.654;2022-12-18T05:56:31;97369.28;;;-4.59;82.94
74270;BME280;62754;48.252;11.654;2022-12-18T05:58:56;97374.31;;;-4.59;83.27
74270;BME280;62754;48.252;11.654;2022-12-18T06:01:25;97373.47;;;-4.66;83.02
74270;BME280;62754;48.252;11.654;2022-12-18T06:03:51;97383.53;;;-4.70;83.29
74270;BME280;62754;48.252;11.654;2022-12-18T06:06:24;97384.38;;;-4.76;83.23
74270;BME280;62754;48.252;11.654;2022-12-18T06:08:51;97381.03;;;-4.64;82.67
74270;BME280;62754;48.252;11.654;2022-12-18T06:11:20;97378.53;;;-4.52;82.87
74270;BME280;62754;48.252;11.654;2022-12-18T06:13:49;97384.38;;;-4.61;82.98
74270;BME280;62754;48.252;11.654;2022-12-18T06:16:15;97392.75;;;-4.51;82.24
74270;BME280;62754;48.252;11.654;2022-12-18T06:18:41;97389.41;;;-4.56;82.47
74270;BME280;62754;48.252;11.654;2022-12-18T06:21:07;97384.38;;;-4.58;82.46
74270;BME280;62754;48.252;11.654;2022-12-18T06:23:32;97376.81;;;-4.67;82.74
74270;BME280;62754;48.252;11.654;2022-12-18T06:25:58;97380.19;;;-4.85;82.57
74270;BME280;62754;48.252;11.654;2022-12-18T06:28:24;97374.34;;;-4.79;82.70
74270;BME280;62754;48.252;11.654;2022-12-18T06:30:50;97384.38;;;-4.67;82.37
74270;BME280;62754;48.252;11.654;2022-12-18T06:33:16;97382.69;;;-4.77;82.65
74270;BME280;62754;48.252;11.654;2022-12-18T06:35:42;97396.91;;;-4.97;83.25
74270;BME280;62754;48.252;11.654;2022-12-18T06:38:08;97392.75;;;-4.86;83.61
74270;BME280;62754;48.252;11.654;2022-12-18T06:40:33;97397.75;;;-4.97;82.96
74270;BME280;62754;48.252;11.654;2022-12-18T06:42:59;97399.47;;;-4.76;82.86
74270;BME280;62754;48.252;11.654;2022-12-18T06:45:25;97401.09;;;-4.98;83.59
74270;BME280;62754;48.252;11.654;2022-12-18T06:47:51;97418.72;;;-4.95;82.49
74270;BME280;62754;48.252;11.654;2022-12-18T06:50:16;97417.88;;;-4.94;83.00
74270;BME280;62754;48.252;11.654;2022-12-18T06:52:42;97413.69;;;-4.93;82.96
74270;BME280;62754;48.252;11.654;2022-12-18T06:55:08;97417.03;;;-5.00;83.17
74270;BME280;62754;48.252;11.654;2022-12-18T06:57:34;97425.41;;;-5.03;82.90
74270;BME280;62754;48.252;11.654;2022-12-18T07:00:00;97427.06;;;-5.11;83.22
74270;BME280;62754;48.252;11.654;2022-12-18T07:02:25;97425.38;;;-5.07;83.13
74270;BME280;62754;48.252;11.654;2022-12-18T07:04:51;97430.38;;;-5.22;83.78
74270;BME280;62754;48.252;11.654;2022-12-18T07:07:17;97433.78;;;-5.07;83.70
74270;BME280;62754;48.252;11.654;2022-12-18T07:09:43;97439.63;;;-5.05;83.40
74270;BME280;62754;48.252;11.654;2022-12-18T07:12:09;97438.00;;;-4.91;82.87
74270;BME280;62754;48.252;11.654;2022-12-18T07:14:35;97434.59;;;-5.05;83.11
74270;BME280;62754;48.252;11.654;2022-12-18T07:17:01;97452.22;;;-4.82;81.99
74270;BME280;62754;48.252;11.654;2022-12-18T07:19:27;97454.69;;;-5.05;82.29
74270;BME280;62754;48.252;11.654;2022-12-18T07:21:52;97451.34;;;-5.07;82.67
74270;BME280;62754;48.252;11.654;2022-12-18T07:24:18;97452.16;;;-5.12;82.86
74270;BME280;62754;48.252;11.654;2022-12-18T07:26:47;97455.50;;;-5.13;82.62
74270;BME280;62754;48.252;11.654;2022-12-18T07:29:12;97464.75;;;-5.06;82.40
74270;BME280;62754;48.252;11.654;2022-12-18T07:31:38;97458.03;;;-5.10;82.40
74270;BME280;62754;48.252;11.654;2022-12-18T07:34:04;97465.59;;;-5.03;82.33
74270;BME280;62754;48.252;11.654;2022-12-18T07:36:30;97466.47;;;-4.89;81.46
74270;BME280;62754;48.252;11.654;2022-12-18T07:38:55;97458.06;;;-5.03;82.11
74270;BME280;62754;48.252;11.654;2022-12-18T07:41:21;97453.81;;;-5.19;82.77
74270;BME280;62754;48.252;11.654;2022-12-18T07:43:47;97444.66;;;-5.05;82.03
74270;BME280;62754;48.252;11.654;2022-12-18T07:46:14;97442.16;;;-4.97;81.65
74270;BME280;62754;48.252;11.654;2022-12-18T07:48:41;97442.91;;;-5.24;82.50
74270;BME280;62754;48.252;11.654;2022-12-18T07:51:07;97453.88;;;-5.10;82.46
74270;BME280;62754;48.252;11.654;2022-12-18T07:53:35;97453.84;;;-5.13;82.65
74270;BME280;62754;48.252;11.654;2022-12-18T07:56:04;97459.72;;;-5.02;81.55
74270;BME280;62754;48.252;11.654;2022-12-18T07:58:30;97452.19;;;-5.02;82.01
74270;BME280;62754;48.252;11.654;2022-12-18T08:01:10;97449.69;;;-4.94;81.96
74270;BME280;62754;48.252;11.654;2022-12-18T08:03:37;97453.00;;;-5.06;81.72
74270;BME280;62754;48.252;11.654;2022-12-18T08:06:05;97458.00;;;-5.13;81.72
74270;BME280;62754;48.252;11.654;2022-12-18T08:08:32;97456.31;;;-5.23;82.05
74270;BME280;62754;48.252;11.654;2022-12-18T08:10:58;97455.50;;;-5.13;81.64
74270;BME280;62754;48.252;11.654;2022-12-18T08:13:24;97463.94;;;-4.95;80.97
74270;BME280;62754;48.252;11.654;2022-12-18T08:16:01;97466.44;;;-5.02;81.66
74270;BME280;62754;48.252;11.654;2022-12-18T08:18:27;97477.34;;;-4.94;80.36
74270;BME280;62754;48.252;11.654;2022-12-18T08:20:54;97474.84;;;-4.93;80.30
74270;BME280;62754;48.252;11.654;2022-12-18T08:23:20;97477.34;;;-4.96;80.92
74270;BME280;62754;48.252;11.654;2022-12-18T08:25:46;97479.03;;;-4.81;80.81
74270;BME280;62754;48.252;11.654;2022-12-18T08:28:12;97476.56;;;-4.72;80.32
74270;BME280;62754;48.252;11.654;2022-12-18T08:30:37;97480.72;;;-4.91;80.63
74270;BME280;62754;48.252;11.654;2022-12-18T08:33:03;97489.09;;;-4.95;80.56
74270;BME280;62754;48.252;11.654;2022-12-18T08:35:29;97477.38;;;-4.91;80.70
74270;BME280;62754;48.252;11.654;2022-12-18T08:37:55;97484.91;;;-4.88;80.17
74270;BME280;62754;48.252;11.654;2022-12-18T08:40:21;97486.59;;;-4.87;80.37
74270;BME280;62754;48.252;11.654;2022-12-18T08:42:46;97486.59;;;-4.84;80.51
74270;BME280;62754;48.252;11.654;2022-12-18T08:45:12;97484.91;;;-4.87;80.42
74270;BME280;62754;48.252;11.654;2022-12-18T08:47:38;97484.91;;;-4.84;80.87
74270;BME280;62754;48.252;11.654;2022-12-18T08:50:04;97489.09;;;-4.84;79.97
74270;BME280;62754;48.252;11.654;2022-12-18T08:52:31;97488.31;;;-4.68;79.91
74270;BME280;62754;48.252;11.654;2022-12-18T08:54:57;97492.50;;;-4.53;78.83
74270;BME280;62754;48.252;11.654;2022-12-18T08:57:23;97485.81;;;-4.53;79.03
74270;BME280;62754;48.252;11.654;2022-12-18T08:59:49;97489.97;;;-4.67;78.88
74270;BME280;62754;48.252;11.654;2022-12-18T09:02:15;97495.88;;;-4.53;78.37
74270;BME280;62754;48.252;11.654;2022-12-18T09:04:40;97499.19;;;-4.66;79.06
74270;BME280;62754;48.252;11.654;2022-12-18T09:07:06;97496.72;;;-4.31;77.56
74270;BME280;62754;48.252;11.654;2022-12-18T09:09:32;97505.09;;;-4.26;77.21
74270;BME280;62754;48.252;11.654;2022-12-18T09:11:58;97505.94;;;-4.39;77.03
74270;BME280;62754;48.252;11.654;2022-12-18T09:14:23;97510.13;;;-4.44;77.97
74270;BME280;62754;48.252;11.654;2022-12-18T09:16:49;97500.06;;;-4.53;78.20
74270;BME280;62754;48.252;11.654;2022-12-18T09:19:15;97505.06;;;-4.62;78.44
74270;BME280;62754;48.252;11.654;2022-12-18T09:21:41;97498.34;;;-4.66;78.35
74270;BME280;62754;48.252;11.654;2022-12-18T09:24:11;97489.16;;;-4.43;78.19
74270;BME280;62754;48.252;11.654;2022-12-18T09:26:37;97494.19;;;-4.36;77.98
74270;BME280;62754;48.252;11.654;2022-12-18T09:29:04;97488.34;;;-4.15;77.38
74270;BME280;62754;48.252;11.654;2022-12-18T09:31:29;97494.19;;;-3.84;76.87
74270;BME280;62754;48.252;11.654;2022-12-18T09:33:56;97482.47;;;-4.14;76.12
74270;BME280;62754;48.252;11.654;2022-12-18T09:36:21;97495.88;;;-4.12;77.41
74270;BME280;62754;48.252;11.654;2022-12-18T09:38:47;97484.97;;;-4.50;78.29
74270;BME280;62754;48.252;11.654;2022-12-18T09:44:12;97494.22;;;-4.14;77.20
74270;BME280;62754;48.252;11.654;2022-12-18T09:46:44;97494.22;;;-4.29;77.82
74270;BME280;62754;48.252;11.654;2022-12-18T09:49:15;97484.16;;;-4.17;76.92
74270;BME280;62754;48.252;11.654;2022-12-18T09:51:46;97492.50;;;-3.93;76.00
74270;BME280;62754;48.252;11.654;2022-12-18T09:54:20;97489.16;;;-4.23;76.43
74270;BME280;62754;48.252;11.654;2022-12-18T09:56:47;97486.66;;;-4.28;75.81
74270;BME280;62754;48.252;11.654;2022-12-18T09:59:22;97478.25;;;-4.28;76.62
74270;BME280;62754;48.252;11.654;2022-12-18T10:01:49;97471.56;;;-4.43;77.03
74270;BME280;62754;48.252;11.654;2022-12-18T10:04:15;97471.56;;;-4.36;76.10
74270;BME280;62754;48.252;11.654;2022-12-18T10:14:20;97458.13;;;-4.68;77.45
74270;BME280;62754;48.252;11.654;2022-12-18T10:20:18;97469.03;;;-4.28;76.23
74270;BME280;62754;48.252;11.654;2022-12-18T10:27:45;97453.09;;;-4.24;75.83
74270;BME280;62754;48.252;11.654;2022-12-18T10:30:16;97447.22;;;-4.12;75.09
74270;BME280;62754;48.252;11.654;2022-12-18T10:32:42;97442.22;;;-4.27;76.42
74270;BME280;62754;48.252;11.654;2022-12-18T10:35:17;97439.69;;;-4.24;75.82
74270;BME280;62754;48.252;11.654;2022-12-18T10:38:02;97438.88;;;-4.34;76.06
74270;BME280;62754;48.252;11.654;2022-12-18T10:40:28;97438.84;;;-4.04;75.46
74270;BME280;62754;48.252;11.654;2022-12-18T10:43:13;97443.88;;;-4.19;76.02
74270;BME280;62754;48.252;11.654;2022-12-18T10:45:40;97437.16;;;-4.17;75.90
74270;BME280;62754;48.252;11.654;2022-12-18T10:48:19;97443.91;;;-4.17;75.56
74270;BME280;62754;48.252;11.654;2022-12-18T10:50:48;97447.22;;;-4.12;76.54
74270;BME280;62754;48.252;11.654;2022-12-18T10:53:21;97443.03;;;-4.06;75.89
74270;BME280;62754;48.252;11.654;2022-12-18T10:55:48;97445.56;;;-4.12;75.70
74270;BME280;62754;48.252;11.654;2022-12-18T10:58:34;97448.88;;;-3.87;75.63
74270;BME280;62754;48.252;11.654;2022-12-18T11:03:44;97445.53;;;-3.88;75.92
74270;BME280;62754;48.252;11.654;2022-12-18T11:06:16;97450.53;;;-3.80;75.38
74270;BME280;62754;48.252;11.654;2022-12-18T11:08:44;97452.22;;;-3.90;75.39
74270;BME280;62754;48.252;11.654;2022-12-18T11:11:23;97453.88;;;-3.73;75.04
74270;BME280;62754;48.252;11.654;2022-12-18T11:13:59;97448.84;;;-3.86;75.44
74270;BME280;62754;48.252;11.654;2022-12-18T11:16:27;97454.72;;;-3.73;76.02
74270;BME280;62754;48.252;11.654;2022-12-18T11:18:54;97449.69;;;-3.76;75.72
74270;BME280;62754;48.252;11.654;2022-12-18T11:21:20;97457.22;;;-3.73;75.32
74270;BME280;62754;48.252;11.654;2022-12-18T11:23:51;97459.75;;;-3.74;75.44
74270;BME280;62754;48.252;11.654;2022-12-18T11:26:18;97458.91;;;-3.76;75.42
74270;BME280;62754;48.252;11.654;2022-12-18T11:28:49;97449.72;;;-3.88;75.45
74270;BME280;62754;48.252;11.654;2022-12-18T11:33:44;97448.84;;;-3.76;74.36
74270;BME280;62754;48.252;11.654;2022-12-18T11:36:11;97445.47;;;-3.68;77.16
74270;BME280;62754;48.252;11.654;2022-12-18T11:38:42;97445.47;;;-3.63;75.92
74270;BME280;62754;48.252;11.654;2022-12-18T11:43:56;97441.25;;;-3.64;77.03
74270;BME280;62754;48.252;11.654;2022-12-18T11:46:34;97435.28;;;-3.36;76.07
74270;BME280;62754;48.252;11.654;2022-12-18T11:49:07;97434.38;;;-3.21;73.49
74270;BME280;62754;48.252;11.654;2022-12-18T11:52:00;97425.22;;;-3.42;74.33
74270;BME280;62754;48.252;11.654;2022-12-18T11:54:28;97435.31;;;-3.47;75.12
74270;BME280;62754;48.252;11.654;2022-12-18T11:57:06;97422.63;;;-3.22;74.22
74270;BME280;62754;48.252;11.654;2022-12-18T12:05:31;97429.56;;;-3.79;76.59
74270;BME280;62754;48.252;11.654;2022-12-18T12:10:57;97421.19;;;-3.87;76.54
74270;BME280;62754;48.252;11.654;2022-12-18T12:21:40;97403.38;;;-3.37;74.46
74270;BME280;62754;48.252;11.654;2022-12-18T12:34:25;97386.59;;;-3.37;74.78
74270;BME280;62754;48.252;11.654;2022-12-18T12:37:08;97386.53;;;-3.29;75.46
74270;BME280;62754;48.252;11.654;2022-12-18T12:39:40;97389.91;;;-3.34;75.97
74270;BME280;62754;48.252;11.654;2022-12-18T12:42:15;97385.75;;;-3.39;75.36
74270;BME280;62754;48.252;11.654;2022-12-18T12:44:47;97388.31;;;-3.49;76.23
74270;BME280;62754;48.252;11.654;2022-12-18T12:47:38;97383.34;;;-3.66;76.78
74270;BME280;62754;48.252;11.654;2022-12-18T12:50:13;97390.75;;;-3.32;75.96
74270;BME280;62754;48.252;11.654;2022-12-18T12:52:45;97392.25;;;-3.04;75.73
74270;BME280;62754;48.252;11.654;2022-12-18T12:55:19;97378.34;;;-3.73;76.02
74270;BME280;62754;48.252;11.654;2022-12-18T12:57:54;97396.78;;;-3.68;76.82
74270;BME280;62754;48.252;11.654;2022-12-18T13:00:22;97397.66;;;-3.71;77.36
74270;BME280;62754;48.252;11.654;2022-12-18T13:05:40;97403.25;;;-3.16;75.29
74270;BME280;62754;48.252;11.654;2022-12-18T13:08:10;97404.22;;;-3.38;76.13
74270;BME280;62754;48.252;11.654;2022-12-18T13:10:42;97401.72;;;-3.41;76.91
74270;BME280;62754;48.252;11.654;2022-12-18T13:13:12;97405.91;;;-3.39;77.00
74270;BME280;62754;48.252;11.654;2022-12-18T13:15:49;97398.31;;;-3.36;76.59
74270;BME280;62754;48.252;11.654;2022-12-18T13:18:28;97405.06;;;-3.39;77.52
74270;BME280;62754;48.252;11.654;2022-12-18T13:31:10;97414.31;;;-3.41;77.11
74270;BME280;62754;48.252;11.654;2022-12-18T13:33:38;97414.22;;;-3.27;76.76
74270;BME280;62754;48.252;11.654;2022-12-18T13:41:42;97401.78;;;-3.61;77.78
74270;BME280;62754;48.252;11.654;2022-12-18T13:44:34;97401.75;;;-3.55;77.41
74270;BME280;62754;48.252;11.654;2022-12-18T13:47:03;97410.22;;;-3.63;78.17
74270;BME280;62754;48.252;11.654;2022-12-18T13:51:58;97401.81;;;-3.68;78.20
74270;BME280;62754;48.252;11.654;2022-12-18T13:57:00;97396.75;;;-3.59;77.39
74270;BME280;62754;48.252;11.654;2022-12-18T13:59:34;97388.44;;;-3.86;78.73
74270;BME280;62754;48.252;11.654;2022-12-18T14:02:11;97375.13;;;-4.18;79.32
74270;BME280;62754;48.252;11.654;2022-12-18T14:04:37;97388.50;;;-4.07;79.72
74270;BME280;62754;48.252;11.654;2022-12-18T14:07:21;97391.88;;;-4.20;80.15
74270;BME280;62754;48.252;11.654;2022-12-18T14:09:58;97394.34;;;-3.88;79.53
74270;BME280;62754;48.252;11.654;2022-12-18T14:12:31;97391.00;;;-3.99;78.97
74270;BME280;62754;48.252;11.654;2022-12-18T14:14:58;97401.94;;;-4.06;79.02
74270;BME280;62754;48.252;11.654;2022-12-18T14:17:24;97406.13;;;-4.20;79.80
74270;BME280;62754;48.252;11.654;2022-12-18T14:19:50;97399.38;;;-3.91;79.95
74270;BME280;62754;48.252;11.654;2022-12-18T14:22:26;97397.66;;;-3.77;78.53
74270;BME280;62754;48.252;11.654;2022-12-18T14:25:14;97399.38;;;-3.97;79.00
74270;BME280;62754;48.252;11.654;2022-12-18T14:27:50;97404.44;;;-4.12;80.40
74270;BME280;62754;48.252;11.654;2022-12-18T14:30:31;97417.06;;;-4.23;80.32
74270;BME280;62754;48.252;11.654;2022-12-18T14:33:04;97410.34;;;-4.10;80.00
74270;BME280;62754;48.252;11.654;2022-12-18T14:35:30;97412.88;;;-4.35;80.57
74270;BME280;62754;48.252;11.654;2022-12-18T14:38:15;97407.81;;;-4.27;80.60
74270;BME280;62754;48.252;11.654;2022-12-18T14:40:43;97409.50;;;-4.32;81.00
74270;BME280;62754;48.252;11.654;2022-12-18T14:43:12;97402.78;;;-4.28;80.56